Time;durP1;ratioP1;P1;durP2;ratioP2;P2;SDS_P1;SDS_P2;PMS_P1;PMS_P2;Temp;Humidity;BMP_temperature;BMP_pressure;BME280_temperature;BME280_humidity;BME280_pressure;Samples;Min_cycle;Max_cycle;Signal;HPM_P1;HPM_P2
2021/07/31 00:02:23;;;;;;;1.60;1.50;;;17.90;99.90;;;;;;4807718;29;20923;-76
2021/07/31 00:04:50;;;;;;;1.63;1.52;;;17.90;99.90;;;;;;4804103;29;20500;-77
2021/07/31 00:07:16;;;;;;;2.15;1.90;;;17.90;99.90;;;;;;4804154;29;20970;-78
2021/07/31 00:09:42;;;;;;;1.48;1.38;;;17.90;99.90;;;;;;4757403;29;20454;-78
2021/07/31 00:12:08;;;;;;;1.60;1.50;;;18.00;99.90;;;;;;4784714;29;20424;-79
2021/07/31 00:14:34;;;;;;;1.33;1.30;;;18.00;99.90;;;;;;4777035;29;20476;-79
2021/07/31 00:17:00;;;;;;;1.50;1.40;;;18.00;99.90;;;;;;4794795;29;20490;-78
2021/07/31 00:19:25;;;;;;;1.80;1.70;;;18.10;99.90;;;;;;4799878;29;20499;-78
2021/07/31 00:21:51;;;;;;;1.30;1.23;;;18.10;99.90;;;;;;4770724;29;20449;-79
2021/07/31 00:24:17;;;;;;;1.67;1.57;;;18.20;99.90;;;;;;4776115;29;20778;-79
2021/07/31 00:26:42;;;;;;;2.10;1.53;;;18.20;99.90;;;;;;4798378;29;20535;-79
2021/07/31 00:29:08;;;;;;;1.70;1.50;;;18.20;99.90;;;;;;4791169;29;20419;-79
2021/07/31 00:31:33;;;;;;;1.60;1.50;;;18.20;99.90;;;;;;4792945;29;20407;-78
2021/07/31 00:34:02;;;;;;;1.42;1.33;;;18.30;99.90;;;;;;4799894;29;20414;-79
2021/07/31 00:36:27;;;;;;;1.60;1.50;;;18.30;99.90;;;;;;4799320;29;20403;-79
2021/07/31 00:38:53;;;;;;;1.63;1.52;;;18.30;99.90;;;;;;4784498;29;20407;-78
2021/07/31 00:41:19;;;;;;;4.80;1.80;;;18.30;99.90;;;;;;4784482;29;20431;-79
2021/07/31 00:43:44;;;;;;;1.60;1.50;;;18.40;99.90;;;;;;4785078;29;20423;-78
2021/07/31 00:46:11;;;;;;;1.80;1.70;;;18.40;99.90;;;;;;4785875;29;20942;-79
2021/07/31 00:48:37;;;;;;;1.55;1.45;;;18.40;99.90;;;;;;4771368;29;20435;-79
2021/07/31 00:51:02;;;;;;;1.60;1.50;;;18.40;99.90;;;;;;4784963;29;20430;-79
2021/07/31 00:53:28;;;;;;;1.67;1.57;;;18.40;99.90;;;;;;4785186;29;20411;-78
2021/07/31 00:55:56;;;;;;;1.50;1.40;;;18.30;99.90;;;;;;4798707;29;20428;-79
2021/07/31 00:58:23;;;;;;;1.70;1.50;;;18.30;99.90;;;;;;4780806;29;20417;-79
2021/07/31 01:00:52;;;;;;;3.95;1.77;;;18.30;99.90;;;;;;4794277;29;20415;-79
2021/07/31 01:03:17;;;;;;;1.90;1.80;;;18.40;99.90;;;;;;4765076;29;20442;-78
2021/07/31 01:05:43;;;;;;;1.88;1.77;;;18.40;99.90;;;;;;4796630;29;20969;-79
2021/07/31 01:08:09;;;;;;;2.08;1.85;;;18.40;99.90;;;;;;4798943;29;20548;-78
2021/07/31 01:10:35;;;;;;;1.77;1.67;;;18.40;99.90;;;;;;4795445;29;20421;-79
2021/07/31 01:13:01;;;;;;;1.77;1.67;;;18.40;99.90;;;;;;4780984;29;20485;-79
2021/07/31 01:15:29;;;;;;;1.80;1.70;;;18.40;99.90;;;;;;4780635;29;20425;-79
2021/07/31 01:17:55;;;;;;;2.20;2.00;;;18.50;99.90;;;;;;4783530;29;20416;-79
2021/07/31 01:20:23;;;;;;;1.37;1.37;;;18.30;99.90;;;;;;4780423;29;20444;-78
2021/07/31 01:22:55;;;;;;;2.05;1.55;;;18.30;99.90;;;;;;4790031;29;20498;-78
2021/07/31 01:25:21;;;;;;;1.70;1.60;;;18.30;99.90;;;;;;4778388;29;20530;-78
2021/07/31 01:27:46;;;;;;;2.22;2.00;;;18.30;99.90;;;;;;4793375;29;20440;-79
2021/07/31 01:30:12;;;;;;;2.00;1.90;;;18.30;99.90;;;;;;4796803;29;20478;-79
2021/07/31 01:32:38;;;;;;;1.70;1.60;;;18.30;99.90;;;;;;4780834;29;20423;-79
2021/07/31 01:35:05;;;;;;;1.58;1.50;;;18.40;99.90;;;;;;4798809;29;20864;-80
2021/07/31 01:37:33;;;;;;;3.30;1.83;;;18.40;99.90;;;;;;4776978;29;20416;-78
2021/07/31 01:39:59;;;;;;;1.63;1.52;;;18.40;99.90;;;;;;4772275;29;20422;-78
2021/07/31 01:42:28;;;;;;;1.67;1.58;;;18.40;99.90;;;;;;4784101;29;20424;-79
2021/07/31 01:44:54;;;;;;;1.95;1.85;;;18.50;99.90;;;;;;4799225;29;20427;-79
2021/07/31 01:47:21;;;;;;;1.88;1.77;;;18.50;99.90;;;;;;4796727;29;20428;-78
2021/07/31 01:49:47;;;;;;;4.78;1.70;;;18.40;99.90;;;;;;4759676;29;20429;-79
2021/07/31 01:52:13;;;;;;;1.70;1.60;;;18.40;99.90;;;;;;4783630;29;20411;-78
2021/07/31 01:54:42;;;;;;;1.85;1.75;;;18.40;99.90;;;;;;4797908;29;21004;-78
2021/07/31 01:57:07;;;;;;;1.90;1.80;;;18.40;99.90;;;;;;4785232;29;20415;-78
2021/07/31 02:00:09;;;;;;;1.83;1.73;;;18.40;99.90;;;;;;4784047;29;20493;-78
2021/07/31 02:02:41;;;;;;;2.20;2.00;;;18.40;99.90;;;;;;4787435;29;20920;-79
2021/07/31 02:05:10;;;;;;;1.90;1.80;;;18.40;99.90;;;;;;4783187;29;20757;-78
2021/07/31 02:07:49;;;;;;;2.00;1.90;;;18.40;99.90;;;;;;4784950;29;20484;-78
2021/07/31 02:10:15;;;;;;;2.20;2.00;;;18.40;99.90;;;;;;4767476;29;20848;-80
2021/07/31 02:12:41;;;;;;;4.43;2.20;;;18.40;99.90;;;;;;4778957;29;20423;-78
2021/07/31 02:15:12;;;;;;;2.03;1.92;;;18.50;99.90;;;;;;4783257;29;21184;-79
2021/07/31 02:17:38;;;;;;;2.40;2.20;;;18.40;99.90;;;;;;4781668;29;20426;-78
2021/07/31 02:20:05;;;;;;;2.50;2.30;;;18.40;99.90;;;;;;4784274;29;20933;-79
2021/07/31 02:22:50;;;;;;;4.70;2.20;;;18.40;99.90;;;;;;4811946;29;20415;-78
2021/07/31 02:25:34;;;;;;;2.05;1.95;;;18.50;99.90;;;;;;4782287;29;20452;-80
2021/07/31 02:28:18;;;;;;;2.40;2.20;;;18.50;99.90;;;;;;4785525;29;20441;-78
2021/07/31 02:30:44;;;;;;;2.10;1.90;;;18.50;99.90;;;;;;4782006;29;20890;-77
2021/07/31 02:33:10;;;;;;;2.40;2.20;;;18.50;99.90;;;;;;4758164;29;20789;-78
2021/07/31 02:35:37;;;;;;;2.20;2.00;;;18.50;99.90;;;;;;4765478;29;20432;-78
2021/07/31 02:38:21;;;;;;;2.63;2.10;;;18.50;99.90;;;;;;4792218;29;20927;-78
2021/07/31 02:40:47;;;;;;;2.00;1.90;;;18.50;99.90;;;;;;4777332;29;20411;-78
2021/07/31 02:43:13;;;;;;;2.10;1.95;;;18.50;99.90;;;;;;4778222;29;20516;-78
2021/07/31 02:45:39;;;;;;;2.13;2.00;;;18.50;99.90;;;;;;4770482;29;20432;-77
2021/07/31 02:48:05;;;;;;;2.00;1.90;;;18.50;99.90;;;;;;4777858;29;20946;-78
2021/07/31 02:50:31;;;;;;;3.65;2.42;;;18.40;99.90;;;;;;4794971;29;20492;-79
2021/07/31 02:53:20;;;;;;;2.97;2.30;;;18.40;99.90;;;;;;4786708;29;20413;-78
2021/07/31 02:55:49;;;;;;;1.90;1.80;;;18.30;99.90;;;;;;4781251;29;20534;-78
2021/07/31 02:58:15;;;;;;;2.08;1.88;;;18.30;99.90;;;;;;4777565;29;20509;-78
2021/07/31 03:00:42;;;;;;;2.20;2.10;;;18.30;99.90;;;;;;4786217;29;20512;-79
2021/07/31 03:03:08;;;;;;;1.85;1.75;;;18.20;99.90;;;;;;4765783;29;20419;-78
2021/07/31 03:05:34;;;;;;;3.20;2.37;;;18.20;99.90;;;;;;4779818;29;20421;-79
2021/07/31 03:08:05;;;;;;;2.47;2.13;;;18.10;99.90;;;;;;4790093;29;20435;-78
2021/07/31 03:10:31;;;;;;;2.20;2.00;;;18.10;99.90;;;;;;4810930;29;20455;-80
2021/07/31 03:12:56;;;;;;;2.25;2.05;;;18.10;99.90;;;;;;4769707;29;20531;-78
2021/07/31 03:15:22;;;;;;;2.05;1.95;;;18.10;99.90;;;;;;4778832;29;20441;-78
2021/07/31 03:17:49;;;;;;;2.42;2.17;;;18.10;99.90;;;;;;4777142;29;20571;-78
2021/07/31 03:20:16;;;;;;;2.20;2.00;;;18.10;99.90;;;;;;4782540;29;20415;-78
2021/07/31 03:22:48;;;;;;;2.50;2.30;;;18.10;99.90;;;;;;4782748;29;20465;-78
2021/07/31 03:25:13;;;;;;;2.10;1.90;;;18.00;99.90;;;;;;4795552;29;20423;-78
2021/07/31 03:27:41;;;;;;;2.40;2.20;;;18.00;99.90;;;;;;4790706;29;20936;-78
2021/07/31 03:30:18;;;;;;;2.42;1.98;;;18.10;99.90;;;;;;4786031;29;20661;-78
2021/07/31 03:32:55;;;;;;;2.40;2.25;;;18.10;99.90;;;;;;4759202;29;20427;-78
2021/07/31 03:35:20;;;;;;;2.13;1.93;;;18.10;99.90;;;;;;4779676;29;20413;-80
2021/07/31 03:38:05;;;;;;;4.50;2.45;;;18.10;99.90;;;;;;4801316;29;20512;-79
2021/07/31 03:40:31;;;;;;;2.40;2.20;;;18.10;99.90;;;;;;4786521;29;20437;-78
2021/07/31 03:42:57;;;;;;;7.15;2.38;;;18.20;99.90;;;;;;4785261;29;20590;-77
2021/07/31 03:45:23;;;;;;;2.35;2.08;;;18.20;99.90;;;;;;4798391;29;21014;-79
2021/07/31 03:47:49;;;;;;;2.40;2.20;;;18.20;99.90;;;;;;4807397;29;20420;-78
2021/07/31 03:50:15;;;;;;;2.55;2.35;;;18.20;99.90;;;;;;4786901;29;20465;-78
2021/07/31 03:52:52;;;;;;;2.50;2.30;;;18.20;99.90;;;;;;4800692;29;21048;-79
2021/07/31 03:55:18;;;;;;;3.38;2.40;;;18.20;99.90;;;;;;4768521;29;20459;-79
2021/07/31 03:57:44;;;;;;;2.43;2.27;;;18.40;99.90;;;;;;4786815;29;20436;-79
2021/07/31 04:00:11;;;;;;;2.45;2.20;;;18.30;99.90;;;;;;4792412;29;20422;-77
2021/07/31 04:02:40;;;;;;;2.50;2.30;;;18.30;99.90;;;;;;4800989;29;20421;-77
2021/07/31 04:05:08;;;;;;;2.40;2.20;;;18.40;99.90;;;;;;4793026;29;20420;-78
2021/07/31 04:07:41;;;;;;;2.45;2.25;;;18.40;99.90;;;;;;4776243;29;20431;-77
2021/07/31 04:10:26;;;;;;;2.47;2.28;;;18.40;99.90;;;;;;4796306;29;20948;-77
2021/07/31 04:13:11;;;;;;;2.45;2.25;;;18.50;99.90;;;;;;4798701;29;20600;-77
2021/07/31 04:15:51;;;;;;;4.57;2.30;;;18.50;99.90;;;;;;4794960;29;20425;-77
2021/07/31 04:18:17;;;;;;;3.15;2.10;;;18.50;99.90;;;;;;4807318;29;20408;-77
2021/07/31 04:20:42;;;;;;;2.03;1.93;;;18.50;99.90;;;;;;4772777;29;20421;-77
2021/07/31 04:23:08;;;;;;;2.30;2.10;;;18.40;99.90;;;;;;4783033;29;20428;-77
2021/07/31 04:25:45;;;;;;;2.17;2.00;;;18.50;99.90;;;;;;4782205;29;21055;-77
2021/07/31 04:28:11;;;;;;;2.90;2.50;;;18.40;99.90;;;;;;4794149;29;20417;-77
2021/07/31 04:30:37;;;;;;;2.20;2.10;;;18.40;99.90;;;;;;4790078;29;20938;-77
2021/07/31 04:33:03;;;;;;;1.95;1.85;;;18.40;99.90;;;;;;4773483;29;20409;-75
2021/07/31 04:35:28;;;;;;;1.77;1.67;;;18.50;99.90;;;;;;4815896;29;20443;-76
2021/07/31 04:37:54;;;;;;;2.47;2.20;;;18.50;99.90;;;;;;4798469;29;20429;-75
2021/07/31 04:40:19;;;;;;;2.40;2.20;;;18.60;99.90;;;;;;4783407;29;20432;-76
2021/07/31 04:42:45;;;;;;;1.93;1.83;;;18.70;99.90;;;;;;4802823;29;20424;-75
2021/07/31 04:45:11;;;;;;;3.58;2.28;;;18.70;99.90;;;;;;4787381;29;20431;-76
2021/07/31 04:47:40;;;;;;;1.87;1.77;;;18.80;99.90;;;;;;4810531;29;20526;-76
2021/07/31 04:50:06;;;;;;;7.10;2.17;;;18.90;99.90;;;;;;4768731;29;20947;-74
2021/07/31 04:52:32;;;;;;;2.45;2.13;;;18.90;99.90;;;;;;4798759;29;20423;-76
2021/07/31 04:54:58;;;;;;;2.00;1.90;;;19.00;99.90;;;;;;4781802;29;20482;-76
2021/07/31 04:57:23;;;;;;;1.98;1.88;;;19.10;99.90;;;;;;4801889;29;20948;-76
2021/07/31 04:59:49;;;;;;;2.63;2.27;;;19.20;99.90;;;;;;4787124;29;20931;-76
2021/07/31 05:02:14;;;;;;;2.28;2.08;;;19.20;99.90;;;;;;4784080;29;21239;-76
2021/07/31 05:04:40;;;;;;;2.08;1.98;;;19.30;99.90;;;;;;4799311;29;20971;-77
2021/07/31 05:07:07;;;;;;;2.07;1.97;;;19.40;99.90;;;;;;4803656;29;20799;-77
2021/07/31 05:09:33;;;;;;;2.30;2.10;;;19.50;99.90;;;;;;4791813;29;20421;-76
2021/07/31 05:11:59;;;;;;;2.97;2.13;;;19.70;99.90;;;;;;4781845;29;20944;-77
2021/07/31 05:14:26;;;;;;;2.23;2.03;;;19.70;99.90;;;;;;4783234;29;20473;-77
2021/07/31 05:16:51;;;;;;;2.17;1.88;;;19.70;99.90;;;;;;4778946;29;20440;-76
2021/07/31 05:19:17;;;;;;;2.10;2.00;;;19.80;99.90;;;;;;4797356;29;20455;-77
2021/07/31 05:21:43;;;;;;;2.50;2.10;;;19.80;99.90;;;;;;4799945;29;20415;-76
2021/07/31 05:24:08;;;;;;;2.10;2.00;;;19.80;99.90;;;;;;4811067;29;20493;-76
2021/07/31 05:26:36;;;;;;;1.93;1.83;;;19.80;99.90;;;;;;4793777;29;20432;-76
2021/07/31 05:29:02;;;;;;;3.20;2.30;;;19.80;99.90;;;;;;4801184;29;20523;-75
2021/07/31 05:31:27;;;;;;;2.10;1.90;;;19.80;99.90;;;;;;4782083;29;20460;-77
2021/07/31 05:33:53;;;;;;;2.20;2.10;;;20.00;99.90;;;;;;4786415;29;20428;-76
2021/07/31 05:36:19;;;;;;;2.10;1.92;;;20.10;99.90;;;;;;4789785;29;20423;-77
2021/07/31 05:38:44;;;;;;;2.08;1.98;;;20.20;99.90;;;;;;4783214;29;20420;-76
2021/07/31 05:41:17;;;;;;;4.63;2.17;;;20.20;99.90;;;;;;4767703;29;20413;-76
2021/07/31 05:43:43;;;;;;;2.95;2.40;;;20.30;99.90;;;;;;4783033;29;20921;-76
2021/07/31 05:46:08;;;;;;;1.88;1.77;;;20.40;99.90;;;;;;4806315;29;20428;-78
2021/07/31 05:48:34;;;;;;;1.80;1.70;;;20.50;99.90;;;;;;4797774;29;20458;-76
2021/07/31 05:50:59;;;;;;;1.88;1.77;;;20.60;99.90;;;;;;4794038;29;20962;-76
2021/07/31 05:53:26;;;;;;;2.03;1.93;;;20.70;99.90;;;;;;4780729;29;20890;-76
2021/07/31 05:55:52;;;;;;;1.93;1.83;;;20.80;99.90;;;;;;4798691;29;20423;-76
2021/07/31 05:58:18;;;;;;;1.90;1.80;;;20.80;99.90;;;;;;4784958;29;20865;-77
2021/07/31 06:00:43;;;;;;;1.88;1.77;;;20.90;99.90;;;;;;4795282;29;20434;-77
2021/07/31 06:03:09;;;;;;;1.73;1.63;;;21.10;99.90;;;;;;4779929;29;20812;-76
2021/07/31 06:05:35;;;;;;;2.00;1.83;;;21.20;99.90;;;;;;4799471;29;20479;-76
2021/07/31 06:08:00;;;;;;;1.70;1.60;;;21.40;99.90;;;;;;4798018;29;20437;-76
2021/07/31 06:10:26;;;;;;;4.10;1.60;;;21.40;99.90;;;;;;4793108;29;20401;-77
2021/07/31 06:12:52;;;;;;;1.60;1.50;;;21.50;99.90;;;;;;4820810;29;20427;-77
2021/07/31 06:15:17;;;;;;;1.80;1.70;;;21.60;99.90;;;;;;4773409;29;20407;-76
2021/07/31 06:17:43;;;;;;;1.73;1.55;;;21.60;99.90;;;;;;4778757;29;20423;-76
2021/07/31 06:20:09;;;;;;;2.13;1.43;;;21.70;99.90;;;;;;4785325;29;20533;-77
2021/07/31 06:22:35;;;;;;;1.48;1.38;;;21.60;99.90;;;;;;4812213;29;20420;-78
2021/07/31 06:25:01;;;;;;;1.33;1.23;;;21.70;99.90;;;;;;4786711;29;20429;-79
2021/07/31 06:27:26;;;;;;;1.77;1.63;;;21.80;99.90;;;;;;4801081;29;20924;-78
2021/07/31 06:29:52;;;;;;;1.00;1.00;;;21.90;99.90;;;;;;4795130;29;20494;-77
2021/07/31 06:32:18;;;;;;;2.42;1.17;;;21.90;99.90;;;;;;4793607;29;20428;-78
2021/07/31 06:34:43;;;;;;;1.53;1.43;;;22.00;99.90;;;;;;4799322;29;20428;-78
2021/07/31 06:37:09;;;;;;;2.47;1.40;;;22.10;99.90;;;;;;4782040;29;20413;-77
2021/07/31 06:39:35;;;;;;;1.27;1.27;;;22.20;99.90;;;;;;4767373;29;20984;-78
2021/07/31 06:42:00;;;;;;;1.23;1.23;;;22.30;99.90;;;;;;4775085;29;20408;-77
2021/07/31 06:44:26;;;;;;;1.40;1.30;;;22.40;99.90;;;;;;4790232;29;20487;-77
2021/07/31 06:46:51;;;;;;;1.00;1.00;;;22.50;99.90;;;;;;4794555;29;20456;-78
2021/07/31 06:49:17;;;;;;;1.33;1.23;;;22.50;99.90;;;;;;4787287;29;20914;-78
2021/07/31 06:51:43;;;;;;;1.40;1.37;;;22.70;99.90;;;;;;4786069;29;20403;-77
2021/07/31 06:54:08;;;;;;;1.40;1.30;;;22.90;99.90;;;;;;4804969;29;20421;-77
2021/07/31 06:56:35;;;;;;;1.52;1.42;;;23.00;99.90;;;;;;4774289;29;20415;-77
2021/07/31 06:59:01;;;;;;;2.80;1.30;;;23.30;99.90;;;;;;4796001;29;20416;-77
2021/07/31 07:01:27;;;;;;;1.38;1.27;;;23.40;99.90;;;;;;4789679;29;20791;-77
2021/07/31 07:03:52;;;;;;;2.23;1.13;;;23.40;99.90;;;;;;4769815;29;20413;-77
2021/07/31 07:06:18;;;;;;;2.25;1.20;;;23.60;99.90;;;;;;4797490;29;20497;-77
2021/07/31 07:08:44;;;;;;;1.10;1.10;;;23.90;99.90;;;;;;4792070;29;20438;-78
2021/07/31 07:11:14;;;;;;;1.20;1.10;;;24.00;99.90;;;;;;4783084;29;20423;-77
2021/07/31 07:13:40;;;;;;;1.10;1.10;;;23.90;99.90;;;;;;4799905;29;20911;-78
2021/07/31 07:16:06;;;;;;;1.10;1.10;;;23.70;99.90;;;;;;4765806;29;20440;-76
2021/07/31 07:18:32;;;;;;;1.20;1.10;;;23.70;99.90;;;;;;4801254;29;20438;-76
2021/07/31 07:20:57;;;;;;;1.00;1.00;;;23.80;99.90;;;;;;4767116;29;20428;-77
2021/07/31 07:23:23;;;;;;;1.13;1.02;;;23.80;99.90;;;;;;4794073;29;20422;-76
2021/07/31 07:25:48;;;;;;;1.13;1.10;;;24.10;99.90;;;;;;4782865;29;20988;-76
2021/07/31 07:28:14;;;;;;;0.90;0.90;;;24.10;99.90;;;;;;4804561;29;20450;-76
2021/07/31 07:30:40;;;;;;;1.13;1.13;;;24.10;99.90;;;;;;4787244;29;20412;-77
2021/07/31 07:33:05;;;;;;;1.00;1.00;;;24.20;99.90;;;;;;4806156;29;20440;-77
2021/07/31 07:35:32;;;;;;;1.20;1.10;;;24.40;99.90;;;;;;4793079;29;20427;-76
2021/07/31 07:37:58;;;;;;;2.40;1.10;;;24.50;99.90;;;;;;4805916;29;20423;-76
2021/07/31 07:40:23;;;;;;;1.13;1.10;;;24.40;99.90;;;;;;4773276;29;20420;-77
2021/07/31 07:42:50;;;;;;;1.10;1.10;;;24.60;99.90;;;;;;4782529;29;20432;-79
2021/07/31 07:45:15;;;;;;;1.02;1.00;;;24.70;99.90;;;;;;4791827;29;20419;-76
2021/07/31 07:47:41;;;;;;;1.27;1.07;;;24.80;99.90;;;;;;4779960;29;20478;-75
2021/07/31 07:50:07;;;;;;;1.10;1.10;;;24.90;99.90;;;;;;4784192;29;20408;-78
2021/07/31 07:52:33;;;;;;;1.15;1.15;;;25.20;99.90;;;;;;4797559;29;20495;-78
2021/07/31 07:54:58;;;;;;;0.90;0.90;;;25.30;99.90;;;;;;4768581;29;20938;-78
2021/07/31 07:57:24;;;;;;;1.17;1.13;;;25.30;99.90;;;;;;4793367;29;20417;-80
2021/07/31 07:59:50;;;;;;;1.27;1.17;;;25.50;99.90;;;;;;4783884;29;20412;-79
2021/07/31 08:02:15;;;;;;;0.90;0.90;;;25.70;99.90;;;;;;4798350;29;21001;-79
2021/07/31 08:04:41;;;;;;;3.50;1.20;;;25.90;99.90;;;;;;4804626;29;21116;-79
2021/07/31 08:07:11;;;;;;;1.50;1.40;;;26.00;99.90;;;;;;4781803;29;20982;-77
2021/07/31 08:09:38;;;;;;;1.90;1.40;;;26.10;99.90;;;;;;4790494;29;20419;-77
2021/07/31 08:12:07;;;;;;;1.58;1.20;;;26.20;99.90;;;;;;4778342;29;20424;-77
2021/07/31 08:14:36;;;;;;;1.20;1.10;;;26.40;99.90;;;;;;4799682;29;20409;-78
2021/07/31 08:17:02;;;;;;;1.10;1.10;;;26.40;99.90;;;;;;4784812;29;20979;-78
2021/07/31 08:19:28;;;;;;;1.10;1.10;;;26.50;99.90;;;;;;4796076;29;20480;-79
2021/07/31 08:21:53;;;;;;;1.23;1.13;;;26.50;99.90;;;;;;4780128;29;20516;-77
2021/07/31 08:24:19;;;;;;;1.20;1.10;;;26.20;99.90;;;;;;4798628;29;20416;-76
2021/07/31 08:26:45;;;;;;;1.03;1.00;;;26.40;99.90;;;;;;4798316;29;20419;-78
2021/07/31 08:29:11;;;;;;;1.30;1.15;;;26.60;99.90;;;;;;4787421;29;20419;-77
2021/07/31 08:31:41;;;;;;;2.13;1.10;;;26.90;99.90;;;;;;4793799;29;20424;-77
2021/07/31 08:34:07;;;;;;;1.00;1.00;;;27.10;99.90;;;;;;4784706;29;20460;-76
2021/07/31 08:36:33;;;;;;;0.82;0.82;;;27.10;99.90;;;;;;4790569;29;20428;-77
2021/07/31 08:38:59;;;;;;;2.50;1.80;;;26.90;99.90;;;;;;4799470;29;20428;-77
2021/07/31 08:41:25;;;;;;;1.27;1.20;;;26.60;99.90;;;;;;4783742;29;20421;-77
2021/07/31 08:43:50;;;;;;;1.20;1.20;;;26.60;99.90;;;;;;4779229;29;20513;-76
2021/07/31 08:46:16;;;;;;;1.33;1.23;;;26.80;99.90;;;;;;4815101;29;20423;-77
2021/07/31 08:48:42;;;;;;;1.00;1.00;;;26.60;99.90;;;;;;4785975;29;20577;-76
2021/07/31 08:51:08;;;;;;;1.10;1.00;;;26.70;99.90;;;;;;4784506;29;20494;-78
2021/07/31 08:53:34;;;;;;;1.33;1.17;;;26.80;99.90;;;;;;4800359;29;20530;-77
2021/07/31 08:56:01;;;;;;;1.13;1.03;;;26.80;99.40;;;;;;4783346;29;20939;-77
2021/07/31 08:58:27;;;;;;;2.50;1.40;;;26.60;99.70;;;;;;4787859;29;20431;-78
2021/07/31 09:00:53;;;;;;;6.13;3.08;;;26.60;99.90;;;;;;4810286;29;20437;-76
2021/07/31 09:03:19;;;;;;;6.35;1.55;;;26.70;99.90;;;;;;4784787;29;20991;-76
2021/07/31 09:05:45;;;;;;;3.40;1.30;;;26.90;99.90;;;;;;4800754;29;20427;-76
2021/07/31 09:08:11;;;;;;;5.07;1.80;;;27.20;99.90;;;;;;4794154;29;20551;-77
2021/07/31 09:10:38;;;;;;;3.30;1.67;;;27.40;99.10;;;;;;4815830;29;20500;-76
2021/07/31 09:13:17;;;;;;;1.10;1.10;;;27.40;98.00;;;;;;4801295;29;20424;-77
2021/07/31 09:15:44;;;;;;;1.38;1.17;;;27.40;98.20;;;;;;4803738;29;20476;-76
2021/07/31 09:18:25;;;;;;;3.43;1.77;;;27.60;97.50;;;;;;4429536;29;10001107;-76
2021/07/31 09:21:10;;;;;;;1.67;1.23;;;27.50;96.40;;;;;;4783697;29;20421;-76
2021/07/31 09:23:41;;;;;;;0.70;0.70;;;27.50;96.60;;;;;;4784462;29;20939;-76
2021/07/31 09:26:07;;;;;;;0.82;0.82;;;27.30;92.30;;;;;;4800430;29;20422;-77
2021/07/31 09:28:32;;;;;;;5.65;1.45;;;27.30;94.20;;;;;;4787929;29;20435;-76
2021/07/31 09:30:58;;;;;;;0.82;0.80;;;27.40;93.80;;;;;;4796941;29;20438;-78
2021/07/31 09:33:24;;;;;;;1.20;1.10;;;27.30;91.90;;;;;;4785208;29;20556;-78
2021/07/31 09:35:59;;;;;;;1.00;0.90;;;27.00;91.40;;;;;;4783442;29;20403;-78
2021/07/31 09:38:43;;;;;;;2.10;1.00;;;27.20;92.40;;;;;;4770169;29;20423;-79
2021/07/31 09:41:22;;;;;;;1.48;0.93;;;27.40;93.80;;;;;;4784258;29;20506;-78
2021/07/31 09:44:06;;;;;;;1.02;0.93;;;27.80;93.10;;;;;;4798301;29;20436;-79
2021/07/31 09:46:35;;;;;;;1.23;1.13;;;27.80;90.50;;;;;;4797280;29;20427;-79
2021/07/31 09:49:01;;;;;;;1.13;0.98;;;27.80;92.70;;;;;;4797189;29;20431;-78
2021/07/31 09:51:59;;;;;;;1.13;1.03;;;28.00;90.50;;;;;;4768752;29;20538;-78
2021/07/31 09:54:25;;;;;;;0.82;0.82;;;28.20;90.10;;;;;;4785090;29;21199;-78
2021/07/31 09:56:52;;;;;;;1.60;1.20;;;28.20;88.90;;;;;;4783081;29;20420;-79
2021/07/31 09:59:19;;;;;;;0.90;0.90;;;28.20;89.60;;;;;;4781275;29;20924;-79
2021/07/31 10:02:03;;;;;;;0.80;0.80;;;28.00;88.00;;;;;;4781661;29;20431;-79
2021/07/31 10:04:32;;;;;;;0.80;0.77;;;28.00;91.50;;;;;;4776395;29;20435;-78
2021/07/31 10:07:03;;;;;;;0.77;0.77;;;28.20;88.50;;;;;;4784231;29;20430;-79
2021/07/31 10:09:29;;;;;;;3.80;1.03;;;28.10;85.90;;;;;;4797506;29;20426;-78
2021/07/31 10:11:55;;;;;;;1.50;1.00;;;28.00;90.20;;;;;;4784441;29;20420;-78
2021/07/31 10:14:21;;;;;;;0.90;0.90;;;28.10;90.50;;;;;;4785254;29;20418;-78
2021/07/31 10:16:47;;;;;;;1.10;1.00;;;28.20;87.00;;;;;;4784892;29;20406;-78
2021/07/31 10:19:13;;;;;;;1.33;0.80;;;28.20;90.30;;;;;;4784641;29;20415;-78
2021/07/31 10:22:03;;;;;;;1.60;1.02;;;28.40;90.40;;;;;;4816561;29;20420;-78
2021/07/31 10:24:28;;;;;;;0.77;0.77;;;28.50;87.40;;;;;;4774459;29;20412;-79
2021/07/31 10:27:16;;;;;;;0.90;0.90;;;28.70;84.10;;;;;;4770006;29;20473;-79
2021/07/31 10:29:42;;;;;;;1.25;1.15;;;28.90;87.60;;;;;;4798755;29;20423;-79
2021/07/31 10:32:23;;;;;;;1.70;0.90;;;29.10;84.90;;;;;;4768092;29;20407;-78
2021/07/31 10:34:53;;;;;;;1.02;1.00;;;29.30;81.50;;;;;;4797705;29;20426;-79
2021/07/31 10:37:29;;;;;;;0.97;0.97;;;29.60;89.50;;;;;;4777228;29;20551;-79
2021/07/31 10:39:55;;;;;;;1.17;1.07;;;29.80;87.10;;;;;;4785988;29;20471;-79
2021/07/31 10:42:21;;;;;;;1.40;0.90;;;30.10;81.50;;;;;;4800726;29;20417;-79
2021/07/31 10:45:15;;;;;;;1.02;1.02;;;30.30;81.70;;;;;;4814248;29;20486;-80
2021/07/31 10:47:44;;;;;;;1.10;1.00;;;30.50;81.90;;;;;;4798753;29;20885;-79
2021/07/31 10:50:22;;;;;;;0.98;0.98;;;30.40;84.90;;;;;;4799936;29;20423;-78
2021/07/31 10:53:01;;;;;;;0.90;0.90;;;30.50;82.70;;;;;;4793388;29;20456;-78
2021/07/31 10:55:36;;;;;;;0.90;0.90;;;30.30;76.90;;;;;;4779768;29;20436;-79
2021/07/31 10:58:01;;;;;;;0.90;0.90;;;30.10;77.70;;;;;;4781271;29;20819;-79
2021/07/31 11:00:40;;;;;;;1.43;1.33;;;29.90;76.60;;;;;;4801617;29;20412;-78
2021/07/31 11:03:15;;;;;;;1.40;1.13;;;29.60;78.80;;;;;;4785865;29;20483;-79
2021/07/31 11:05:58;;;;;;;0.85;0.80;;;29.30;75.40;;;;;;4783115;29;20499;-79
2021/07/31 11:08:27;;;;;;;0.68;0.60;;;29.10;79.70;;;;;;4801004;29;20431;-79
2021/07/31 11:10:56;;;;;;;0.90;0.80;;;29.20;78.00;;;;;;4770116;29;20452;-79
2021/07/31 11:13:21;;;;;;;0.93;0.90;;;29.60;82.30;;;;;;4787327;29;20416;-79
2021/07/31 11:16:13;;;;;;;0.80;0.80;;;30.20;78.10;;;;;;4803652;29;20423;-80
2021/07/31 11:18:43;;;;;;;1.33;0.98;;;30.30;78.00;;;;;;4787552;29;20420;-80
2021/07/31 11:21:10;;;;;;;2.00;1.10;;;30.40;74.30;;;;;;4775593;29;20418;-79
2021/07/31 11:23:55;;;;;;;0.70;0.70;;;30.30;71.20;;;;;;4796862;29;20420;-79
2021/07/31 11:26:36;;;;;;;0.90;0.90;;;30.50;72.70;;;;;;4782539;29;20550;-79
2021/07/31 11:29:06;;;;;;;1.30;0.70;;;30.70;74.00;;;;;;4797271;29;20443;-79
2021/07/31 11:31:32;;;;;;;1.50;0.90;;;30.80;69.40;;;;;;4796134;29;20428;-79
2021/07/31 11:33:58;;;;;;;0.63;0.63;;;30.30;68.00;;;;;;4779233;29;20408;-79
2021/07/31 11:36:24;;;;;;;0.60;0.60;;;30.40;70.80;;;;;;4782121;29;20466;-79
2021/07/31 11:38:50;;;;;;;0.80;0.80;;;30.70;73.40;;;;;;4797022;29;20919;-79
2021/07/31 11:41:16;;;;;;;2.20;1.00;;;30.60;69.70;;;;;;4782695;29;20795;-80
2021/07/31 11:43:55;;;;;;;0.80;0.80;;;30.40;69.10;;;;;;4794800;29;20427;-79
2021/07/31 11:46:43;;;;;;;0.73;0.73;;;30.70;70.60;;;;;;4773692;29;20444;-79
2021/07/31 11:49:22;;;;;;;0.80;0.80;;;31.00;69.60;;;;;;4767052;29;20977;-79
2021/07/31 11:51:48;;;;;;;0.77;0.77;;;31.30;73.10;;;;;;4782485;29;20536;-79
2021/07/31 11:54:14;;;;;;;1.00;0.90;;;31.50;68.10;;;;;;4800645;29;20931;-79
2021/07/31 11:56:40;;;;;;;3.70;0.80;;;31.40;65.50;;;;;;4767226;29;20911;-79
2021/07/31 11:59:06;;;;;;;0.60;0.60;;;31.60;67.50;;;;;;4785402;29;20423;-79
2021/07/31 12:01:33;;;;;;;0.70;0.70;;;31.80;65.20;;;;;;4800152;29;20415;-79
2021/07/31 12:03:59;;;;;;;1.88;0.93;;;31.80;63.30;;;;;;4786202;29;20918;-79
2021/07/31 12:06:28;;;;;;;0.60;0.60;;;31.40;67.90;;;;;;4786448;29;20422;-79
2021/07/31 12:08:53;;;;;;;0.70;0.70;;;31.60;65.70;;;;;;4773989;29;20437;-78
2021/07/31 12:11:34;;;;;;;0.77;0.77;;;31.60;66.60;;;;;;4786202;29;20480;-79
2021/07/31 12:14:00;;;;;;;6.40;0.80;;;31.60;66.10;;;;;;4784645;29;20490;-79
2021/07/31 12:16:29;;;;;;;1.10;0.85;;;31.70;65.20;;;;;;4785657;29;20511;-78
2021/07/31 12:18:55;;;;;;;1.27;0.88;;;31.60;65.40;;;;;;4774815;29;20442;-78
2021/07/31 12:21:27;;;;;;;0.90;0.90;;;30.70;62.50;;;;;;4786269;29;20454;-78
2021/07/31 12:23:53;;;;;;;0.70;0.70;;;30.50;65.40;;;;;;4787368;29;20423;-79
2021/07/31 12:26:31;;;;;;;0.73;0.73;;;30.50;67.30;;;;;;4787208;29;20431;-79
2021/07/31 12:28:57;;;;;;;0.70;0.70;;;30.50;68.50;;;;;;4797581;29;20423;-79
2021/07/31 12:31:23;;;;;;;0.77;0.77;;;30.70;67.10;;;;;;4784015;29;20418;-78
2021/07/31 12:33:49;;;;;;;1.17;0.60;;;30.50;64.00;;;;;;4800274;29;20901;-79
2021/07/31 12:36:15;;;;;;;3.20;0.80;;;30.30;65.10;;;;;;4785381;29;20548;-79
2021/07/31 12:38:40;;;;;;;1.07;0.80;;;30.60;67.90;;;;;;4784759;29;20436;-79
2021/07/31 12:41:06;;;;;;;0.77;0.77;;;30.80;64.40;;;;;;4785640;29;20417;-78
2021/07/31 12:43:32;;;;;;;0.88;0.88;;;30.60;63.30;;;;;;4783093;29;20986;-79
2021/07/31 12:46:02;;;;;;;0.75;0.75;;;30.80;62.90;;;;;;4799235;29;20901;-78
2021/07/31 12:48:28;;;;;;;1.10;1.10;;;31.00;63.90;;;;;;4786686;29;20535;-78
2021/07/31 12:50:54;;;;;;;1.50;0.70;;;31.10;65.50;;;;;;4799852;29;20419;-78
2021/07/31 12:53:20;;;;;;;0.70;0.70;;;31.10;62.40;;;;;;4771676;29;20434;-78